Time;durP1;ratioP1;P1;durP2;ratioP2;P2;SDS_P1;SDS_P2;PMS_P1;PMS_P2;Temp;Humidity;BMP_temperature;BMP_pressure;BME280_temperature;BME280_humidity;BME280_pressure;Samples;Min_cycle;Max_cycle;Signal;HPM_P1;HPM_P2
2022/08/13 00:02:05;;;;;;;6.28;4.72;;;;;;;19.32;100.00;92932.38;5110592;28;20124;-76
2022/08/13 00:04:31;;;;;;;8.75;5.28;;;;;;;19.30;100.00;92931.84;5110929;28;20089;-76
2022/08/13 00:07:08;;;;;;;7.55;5.38;;;;;;;19.29;100.00;92924.28;5110492;28;20112;-76
2022/08/13 00:09:36;;;;;;;8.38;5.60;;;;;;;19.27;100.00;92927.19;5110406;28;20039;-76
2022/08/13 00:14:50;;;;;;;6.55;5.10;;;;;;;19.21;100.00;92921.22;5110304;28;20453;-76
2022/08/13 00:17:19;;;;;;;6.97;5.72;;;;;;;19.17;100.00;92922.81;5110418;28;20051;-76
2022/08/13 00:19:50;;;;;;;7.68;5.20;;;;;;;19.13;100.00;92911.41;5110307;28;20171;-76
2022/08/13 00:22:19;;;;;;;6.72;5.53;;;;;;;19.01;100.00;92895.28;5110466;28;20048;-76
2022/08/13 00:24:46;;;;;;;11.75;7.70;;;;;;;19.04;100.00;92902.59;5110336;28;20114;-76
2022/08/13 00:27:13;;;;;;;11.40;7.45;;;;;;;19.03;100.00;92901.00;5109902;28;20040;-76
2022/08/13 00:29:40;;;;;;;14.05;9.43;;;;;;;19.00;100.00;92893.72;5110058;28;20043;-76
2022/08/13 00:32:07;;;;;;;13.80;9.98;;;;;;;19.04;100.00;92902.59;5109877;28;20081;-76
2022/08/13 00:34:35;;;;;;;15.40;11.25;;;;;;;19.04;100.00;92894.78;5109880;28;20051;-76
2022/08/13 00:37:02;;;;;;;14.43;9.55;;;;;;;19.04;100.00;92892.19;5099582;28;20040;-76
2022/08/13 00:39:29;;;;;;;12.27;8.63;;;;;;;19.06;100.00;92890.88;5089341;28;20059;-76
2022/08/13 00:41:55;;;;;;;12.27;8.50;;;;;;;18.93;100.00;92881.03;5089329;28;20044;-76
2022/08/13 00:44:23;;;;;;;10.75;7.75;;;;;;;19.02;100.00;92894.25;5100983;28;20055;-76
2022/08/13 00:48:41;;;;;;;9.27;6.30;;;;;;;18.99;100.00;92892.97;5109580;28;20039;-77
2022/08/13 00:49:37;;;;;;;7.65;5.97;;;;;;;18.99;100.00;92892.19;5109482;28;20517;-76
2022/08/13 00:52:10;;;;;;;8.13;5.47;;;;;;;18.97;100.00;92884.63;5109199;28;20130;-76
2022/08/13 00:54:40;;;;;;;10.10;5.90;;;;;;;18.93;100.00;92881.03;5109801;28;20039;-76
2022/08/13 00:57:07;;;;;;;7.45;6.05;;;;;;;18.94;100.00;92883.34;5109665;28;20302;-76
2022/08/13 00:59:34;;;;;;;8.70;6.13;;;;;;;18.93;100.00;92881.03;5109441;28;20127;-76
2022/08/13 01:02:04;;;;;;;8.00;6.35;;;;;;;18.86;100.00;92864.94;5109164;28;20051;-76
2022/08/13 01:04:32;;;;;;;8.63;5.93;;;;;;;18.91;100.00;92873.50;5109415;28;20043;-76
2022/08/13 01:07:01;;;;;;;7.70;5.75;;;;;;;18.92;100.00;92877.66;5109510;28;20035;-76
2022/08/13 01:09:30;;;;;;;7.90;6.18;;;;;;;18.92;100.00;92875.03;5109119;28;20040;-76
2022/08/13 01:11:59;;;;;;;8.15;6.10;;;;;;;18.98;100.00;92877.63;5109493;28;20459;-76
2022/08/13 01:14:32;;;;;;;8.40;6.18;;;;;;;18.98;100.00;92883.59;5109118;28;20047;-76
2022/08/13 01:17:02;;;;;;;7.40;5.57;;;;;;;18.96;100.00;92878.66;5109267;28;20070;-76
2022/08/13 01:19:31;;;;;;;7.13;5.35;;;;;;;19.00;100.00;92878.13;5108970;28;20478;-76
2022/08/13 01:22:00;;;;;;;6.68;5.78;;;;;;;18.98;100.00;92880.97;5108983;28;20154;-76
2022/08/13 01:24:29;;;;;;;9.60;6.07;;;;;;;19.03;100.00;92874.97;5109258;28;20051;-76
2022/08/13 01:26:57;;;;;;;7.13;5.88;;;;;;;19.02;100.00;92868.22;5105188;28;20130;-76
2022/08/13 01:29:25;;;;;;;8.80;6.00;;;;;;;18.97;100.00;92869.03;5088679;28;20579;-76
2022/08/13 01:31:53;;;;;;;8.07;6.15;;;;;;;18.94;100.00;92878.16;5088540;28;20047;-76
2022/08/13 01:34:20;;;;;;;6.95;5.65;;;;;;;18.95;100.00;92878.94;5088716;28;20056;-76
2022/08/13 01:36:49;;;;;;;8.90;6.50;;;;;;;18.93;100.00;92881.78;5088274;28;20515;-76
2022/08/13 01:39:17;;;;;;;8.93;6.03;;;;;;;18.77;100.00;92862.91;5088713;28;20052;-75
2022/08/13 01:41:45;;;;;;;8.55;6.13;;;;;;;18.89;100.00;92882.63;5089350;28;20442;-75
2022/08/13 01:44:14;;;;;;;7.85;5.95;;;;;;;18.87;100.00;92876.88;5099309;28;20042;-75
2022/08/13 01:52:12;;;;;;;9.40;6.38;;;;;;;18.85;100.00;92881.59;5089300;28;20051;-75
2022/08/13 01:54:42;;;;;;;8.07;6.32;;;;;;;18.82;100.00;92875.09;5089004;28;20040;-75
2022/08/13 01:57:11;;;;;;;7.40;5.90;;;;;;;18.77;100.00;92865.50;5089042;28;20059;-75
2022/08/13 01:59:41;;;;;;;7.25;6.20;;;;;;;18.79;100.00;92867.84;5089427;28;20086;-75
2022/08/13 02:02:10;;;;;;;7.80;6.22;;;;;;;18.82;100.00;92865.47;5088623;28;20102;-76
2022/08/13 02:04:37;;;;;;;7.72;5.85;;;;;;;18.74;100.00;92858.22;5091783;28;20044;-76
2022/08/13 02:07:08;;;;;;;7.13;5.43;;;;;;;18.85;100.00;92869.38;5092874;28;20048;-75
2022/08/13 02:09:35;;;;;;;9.50;5.82;;;;;;;18.81;100.00;92856.13;5093121;28;20090;-75
2022/08/13 02:12:04;;;;;;;9.07;6.57;;;;;;;18.87;100.00;92864.66;5092594;28;20512;-75
2022/08/13 02:14:33;;;;;;;7.53;6.15;;;;;;;18.86;100.00;92872.72;5092827;28;20048;-76
2022/08/13 02:16:59;;;;;;;7.93;6.13;;;;;;;18.84;100.00;92875.59;5092744;28;20415;-75
2022/08/13 02:19:26;;;;;;;7.60;6.22;;;;;;;18.87;100.00;92871.69;5093062;28;20051;-75
2022/08/13 02:21:53;;;;;;;7.60;5.97;;;;;;;18.85;100.00;92877.19;5092980;28;20056;-76
2022/08/13 02:24:20;;;;;;;9.48;6.45;;;;;;;18.82;100.00;92880.31;5092621;28;20044;-76
2022/08/13 02:26:47;;;;;;;9.65;5.95;;;;;;;18.79;100.00;92871.22;5092907;28;20462;-76
2022/08/13 02:29:17;;;;;;;9.18;6.55;;;;;;;18.82;100.00;92875.88;5092691;28;20152;-76
2022/08/13 02:31:44;;;;;;;8.35;6.15;;;;;;;18.79;100.00;92871.22;5092778;28;20052;-76
2022/08/13 02:34:12;;;;;;;9.20;7.03;;;;;;;18.78;100.00;92867.06;5092279;28;20090;-76
2022/08/13 02:36:40;;;;;;;8.77;6.53;;;;;;;18.76;100.00;92870.97;5092067;28;20052;-76
2022/08/13 02:39:09;;;;;;;8.85;6.47;;;;;;;18.76;100.00;92868.38;5092544;28;20127;-75
2022/08/13 02:41:42;;;;;;;8.93;6.30;;;;;;;18.78;100.00;92876.69;5092509;28;20058;-75
2022/08/13 02:44:11;;;;;;;8.38;6.07;;;;;;;18.78;100.00;92876.69;5102102;28;20499;-76
2022/08/13 02:46:40;;;;;;;9.55;6.47;;;;;;;18.76;100.00;92869.16;5095923;28;20067;-76
2022/08/13 02:49:07;;;;;;;8.23;6.50;;;;;;;18.70;100.00;92860.59;5092677;28;20086;-75
2022/08/13 02:51:34;;;;;;;7.95;6.47;;;;;;;18.75;100.00;92872.78;5092320;28;20048;-75
2022/08/13 02:54:01;;;;;;;9.73;6.55;;;;;;;18.73;100.00;92872.28;5091769;28;20537;-75
2022/08/13 02:56:29;;;;;;;7.30;6.45;;;;;;;18.69;100.00;92866.84;5092302;28;20184;-76
2022/08/13 02:58:57;;;;;;;9.32;6.60;;;;;;;18.64;100.00;92863.47;5091912;28;20050;-76
2022/08/13 03:01:25;;;;;;;10.48;6.57;;;;;;;18.59;100.00;92863.50;5091775;28;20052;-76
2022/08/13 03:03:53;;;;;;;8.90;6.50;;;;;;;18.57;100.00;92861.19;5092009;28;20127;-75
2022/08/13 03:06:20;;;;;;;9.60;6.47;;;;;;;18.55;100.00;92865.88;5091747;28;20496;-75
2022/08/13 03:08:49;;;;;;;8.43;6.63;;;;;;;18.51;100.00;92867.47;5091990;28;20553;-75
2022/08/13 03:11:17;;;;;;;8.27;6.70;;;;;;;18.48;100.00;92868.78;5092038;28;20132;-75
2022/08/13 03:13:48;;;;;;;7.53;6.68;;;;;;;18.45;100.00;92863.31;5091918;28;20056;-74
2022/08/13 03:16:16;;;;;;;9.15;6.20;;;;;;;18.49;100.00;92865.13;5091229;28;20071;-74
2022/08/13 03:18:43;;;;;;;8.98;6.50;;;;;;;18.52;100.00;92874.22;5091880;28;20044;-74
2022/08/13 03:21:18;;;;;;;8.25;6.63;;;;;;;18.52;100.00;92866.41;5091801;28;20055;-74
2022/08/13 03:23:46;;;;;;;8.20;6.00;;;;;;;18.56;100.00;92877.81;5091720;28;20138;-74
2022/08/13 03:26:13;;;;;;;9.07;6.47;;;;;;;18.57;100.00;92876.81;5091788;28;20125;-74
2022/08/13 03:28:40;;;;;;;8.82;6.03;;;;;;;18.50;100.00;92869.28;5091539;28;20040;-74
2022/08/13 03:31:07;;;;;;;8.20;5.82;;;;;;;18.41;100.00;92868.28;5091582;28;20171;-74
2022/08/13 03:33:35;;;;;;;10.50;6.55;;;;;;;18.43;100.00;92879.19;5091663;28;20052;-74
2022/08/13 03:36:02;;;;;;;9.15;6.15;;;;;;;18.39;100.00;92867.78;5091150;28;20083;-74
2022/08/13 03:38:30;;;;;;;8.32;6.30;;;;;;;18.37;100.00;92869.88;5091523;28;20048;-74
2022/08/13 03:41:08;;;;;;;8.93;6.93;;;;;;;18.30;100.00;92868.31;5091277;28;20081;-74
2022/08/13 03:43:35;;;;;;;8.57;6.07;;;;;;;18.35;100.00;92871.94;5096492;28;20452;-74
2022/08/13 03:46:02;;;;;;;8.05;6.80;;;;;;;18.33;100.00;92867.00;5099878;28;20127;-74
2022/08/13 03:48:29;;;;;;;10.40;6.60;;;;;;;18.32;100.00;92864.69;5091260;28;20067;-74
2022/08/13 03:51:00;;;;;;;10.10;6.35;;;;;;;18.34;100.00;92868.56;5091013;28;20086;-74
2022/08/13 03:53:26;;;;;;;11.30;6.93;;;;;;;18.35;100.00;92877.13;5091172;28;20476;-74
2022/08/13 03:55:55;;;;;;;8.32;6.47;;;;;;;18.37;100.00;92878.44;5090440;28;20537;-74
2022/08/13 03:58:24;;;;;;;8.20;6.57;;;;;;;18.38;100.00;92871.41;5090442;28;20412;-74
2022/08/13 04:00:51;;;;;;;8.77;7.22;;;;;;;18.39;100.00;92878.97;5090172;28;20044;-74
2022/08/13 04:03:20;;;;;;;9.25;7.25;;;;;;;18.35;100.00;92861.53;5091371;28;20052;-74
2022/08/13 04:05:48;;;;;;;8.52;6.30;;;;;;;18.40;100.00;92869.31;5090611;28;20044;-74
2022/08/13 04:08:15;;;;;;;8.88;6.68;;;;;;;18.43;100.00;92872.16;5090460;28;20564;-74
2022/08/13 04:10:43;;;;;;;11.30;7.20;;;;;;;18.47;100.00;92875.00;5090274;28;20040;-73
2022/08/13 04:13:16;;;;;;;10.95;6.60;;;;;;;18.48;100.00;92878.41;5090602;28;20510;-74
2022/08/13 04:15:43;;;;;;;10.43;6.32;;;;;;;18.47;100.00;92875.00;5090621;28;20177;-74
2022/08/13 04:18:13;;;;;;;10.18;6.68;;;;;;;18.48;100.00;92870.59;5090569;28;20143;-74
2022/08/13 04:20:41;;;;;;;8.05;6.47;;;;;;;18.47;100.00;92869.81;5097085;28;20036;-74
2022/08/13 04:23:14;;;;;;;8.80;7.10;;;;;;;18.50;100.00;92869.28;5098993;28;20093;-73
2022/08/13 04:25:42;;;;;;;9.70;7.07;;;;;;;18.54;100.00;92872.91;5093992;28;20048;-74
2022/08/13 04:28:11;;;;;;;13.07;7.60;;;;;;;18.53;100.00;92862.75;5104252;28;20039;-73
2022/08/13 04:30:40;;;;;;;9.27;6.72;;;;;;;18.61;100.00;92871.84;5098359;28;20051;-73
2022/08/13 04:33:09;;;;;;;10.23;7.22;;;;;;;18.61;100.00;92872.59;5106263;28;20081;-73
2022/08/13 04:35:36;;;;;;;8.68;6.65;;;;;;;18.62;100.00;92873.38;5093037;28;20054;-73
2022/08/13 04:38:05;;;;;;;10.98;6.85;;;;;;;18.68;100.00;92877.50;5090328;28;20040;-73
2022/08/13 04:40:33;;;;;;;10.25;7.00;;;;;;;18.71;100.00;92879.59;5090167;28;20071;-73
2022/08/13 04:43:00;;;;;;;11.93;7.30;;;;;;;18.76;100.00;92873.56;5104793;28;20453;-73
2022/08/13 04:45:29;;;;;;;11.88;7.90;;;;;;;18.82;100.00;92877.69;5090274;28;20048;-74
2022/08/13 04:47:59;;;;;;;8.52;6.93;;;;;;;18.82;100.00;92870.69;5089796;28;20098;-73
2022/08/13 04:50:26;;;;;;;10.55;6.90;;;;;;;18.87;100.00;92872.47;5090142;28;20051;-74
2022/08/13 04:52:53;;;;;;;10.30;6.72;;;;;;;18.90;100.00;92871.94;5089849;28;20438;-73
2022/08/13 04:55:20;;;;;;;11.35;6.95;;;;;;;18.89;100.00;92869.59;5089707;28;20096;-74
2022/08/13 04:57:48;;;;;;;7.72;6.35;;;;;;;18.93;100.00;92879.19;5091942;28;20040;-74
2022/08/13 05:00:16;;;;;;;7.78;6.97;;;;;;;18.85;100.00;92871.97;5089673;28;20047;-74
2022/08/13 05:02:43;;;;;;;9.25;6.72;;;;;;;18.89;100.00;92872.97;5088522;28;20040;-74
2022/08/13 05:05:12;;;;;;;10.40;6.97;;;;;;;19.00;100.00;92880.72;5089287;28;20071;-74
2022/08/13 05:07:39;;;;;;;9.80;6.85;;;;;;;19.00;100.00;92863.28;5089149;28;20066;-74
2022/08/13 05:10:06;;;;;;;9.25;6.88;;;;;;;19.05;100.00;92875.50;5096488;28;20484;-73
2022/08/13 05:12:35;;;;;;;9.57;6.85;;;;;;;19.07;100.00;92876.03;5109128;28;20092;-73
2022/08/13 05:15:02;;;;;;;10.57;7.05;;;;;;;19.04;100.00;92858.34;5100171;28;20583;-73
2022/08/13 05:17:30;;;;;;;8.80;6.95;;;;;;;19.13;100.00;92861.16;5098117;28;20139;-75
2022/08/13 05:19:57;;;;;;;10.20;7.03;;;;;;;19.28;100.00;92871.44;5097019;28;20420;-74
2022/08/13 05:22:26;;;;;;;11.25;7.13;;;;;;;19.31;100.00;92876.09;5099238;28;20052;-73
2022/08/13 05:24:53;;;;;;;9.73;6.47;;;;;;;19.40;100.00;92873.72;5089591;28;20080;-73
2022/08/13 05:27:19;;;;;;;9.55;6.53;;;;;;;19.46;100.00;92875.22;5091626;28;20097;-74
2022/08/13 05:29:47;;;;;;;8.57;6.57;;;;;;;19.57;100.00;92872.50;5089728;28;20066;-74
2022/08/13 05:32:15;;;;;;;9.95;6.85;;;;;;;19.72;100.00;92879.44;5106534;28;20040;-74
2022/08/13 05:34:41;;;;;;;8.32;6.38;;;;;;;19.77;100.00;92876.78;5095500;28;20043;-73
2022/08/13 05:37:15;;;;;;;9.38;6.38;;;;;;;19.84;100.00;92871.22;5090817;28;20085;-74
2022/08/13 05:39:44;;;;;;;8.65;6.57;;;;;;;19.94;100.00;92872.97;5101741;28;20442;-74
2022/08/13 05:42:11;;;;;;;8.27;6.32;;;;;;;20.05;100.00;92876.28;5091090;28;20040;-75
2022/08/13 05:44:38;;;;;;;9.52;6.90;;;;;;;20.11;100.00;92875.97;5091863;28;20164;-75
2022/08/13 05:47:06;;;;;;;11.55;7.43;;;;;;;20.05;100.00;92863.25;5090964;28;20044;-75
2022/08/13 05:49:33;;;;;;;8.77;7.25;;;;;;;20.22;100.00;92883.66;5098487;28;20097;-75
2022/08/13 05:52:01;;;;;;;9.82;7.32;;;;;;;20.29;100.00;92886.72;5090928;28;20070;-74
2022/08/13 05:54:30;;;;;;;11.07;7.60;;;;;;;20.37;100.00;92880.88;5093562;28;20044;-74
2022/08/13 05:56:58;;;;;;;11.57;7.25;;;;;;;20.46;100.00;92888.09;5104963;28;20044;-74
2022/08/13 06:05:02;;;;;;;11.95;7.18;;;;;;;20.66;100.00;92881.84;5047038;28;20524;-74
2022/08/13 06:07:29;;;;;;;9.18;7.28;;;;;;;20.21;100.00;92866.44;5096957;28;20127;-74
2022/08/13 06:09:57;;;;;;;12.25;7.15;;;;;;;20.46;100.00;92888.84;5094000;28;20048;-75
2022/08/13 06:12:26;;;;;;;10.10;7.95;;;;;;;20.40;100.00;92884.75;5096749;28;20039;-74
2022/08/13 06:15:01;;;;;;;9.63;6.95;;;;;;;20.26;100.00;92879.44;5097530;28;20096;-73
2022/08/13 06:17:28;;;;;;;10.57;7.38;;;;;;;20.08;100.00;92857.47;5099067;28;20455;-74
2022/08/13 06:19:59;;;;;;;9.60;7.15;;;;;;;20.25;100.00;92883.88;5096459;28;20446;-74
2022/08/13 06:22:28;;;;;;;11.68;7.55;;;;;;;20.35;100.00;92879.59;5088687;28;20098;-73
2022/08/13 06:24:54;;;;;;;7.97;6.70;;;;;;;20.47;100.00;92881.81;5088814;28;20041;-73
2022/08/13 06:27:22;;;;;;;9.65;6.90;;;;;;;20.21;100.00;92885.50;5089064;28;20101;-74
2022/08/13 06:29:50;;;;;;;9.48;7.22;;;;;;;20.39;100.00;92886.59;5088923;28;20051;-74
2022/08/13 06:32:17;;;;;;;9.25;7.13;;;;;;;20.58;100.00;92885.84;5088958;28;20101;-74
2022/08/13 06:34:44;;;;;;;9.48;7.22;;;;;;;20.80;100.00;92887.94;5088424;28;20052;-73
2022/08/13 06:37:11;;;;;;;9.90;7.43;;;;;;;21.01;100.00;92890.28;5088467;28;20036;-73
2022/08/13 06:39:38;;;;;;;10.63;8.20;;;;;;;21.25;100.00;92886.81;5088881;28;20109;-73
2022/08/13 06:42:06;;;;;;;12.88;7.38;;;;;;;21.44;100.00;92889.38;5088420;28;20056;-73
2022/08/13 06:44:34;;;;;;;8.93;7.10;;;;;;;21.62;100.00;92887.03;5102178;28;20054;-73
2022/08/13 06:47:04;;;;;;;10.00;6.32;;;;;;;21.65;100.00;92883.84;5088688;28;20664;-73
2022/08/13 06:49:32;;;;;;;9.38;7.15;;;;;;;21.71;100.00;92890.56;5088700;28;20086;-73
2022/08/13 06:51:59;;;;;;;9.88;6.15;;;;;;;21.76;99.42;92887.84;5089620;28;20048;-73
2022/08/13 06:54:27;;;;;;;7.57;6.20;;;;;;;21.73;99.03;92885.03;5091207;28;20056;-73
2022/08/13 06:56:55;;;;;;;9.18;6.28;;;;;;;21.87;98.96;92883.25;5092248;28;20113;-73
2022/08/13 06:59:24;;;;;;;8.80;6.53;;;;;;;21.91;98.02;92882.66;5091919;28;20048;-72
2022/08/13 07:01:53;;;;;;;7.30;5.57;;;;;;;22.06;98.50;92887.63;5091715;28;20123;-72
2022/08/13 07:04:21;;;;;;;8.77;6.18;;;;;;;22.02;96.35;92891.88;5091685;28;20507;-73
2022/08/13 07:06:49;;;;;;;9.57;5.93;;;;;;;21.72;98.71;92886.13;5092066;28;20097;-73
2022/08/13 07:09:18;;;;;;;8.13;5.82;;;;;;;21.39;99.41;92818.94;5091697;28;20052;-73
2022/08/13 07:11:45;;;;;;;8.50;5.88;;;;;;;21.98;96.44;92902.13;5091554;28;20495;-73
2022/08/13 07:14:14;;;;;;;7.43;5.80;;;;;;;22.12;96.26;92893.53;5091605;28;20040;-73
2022/08/13 07:16:42;;;;;;;12.68;6.50;;;;;;;22.38;95.77;92895.66;5091700;28;20047;-73
2022/08/13 07:19:11;;;;;;;8.38;5.80;;;;;;;22.51;95.15;92883.66;5100647;28;20481;-72
2022/08/13 07:21:41;;;;;;;8.25;6.18;;;;;;;22.74;93.48;92900.22;5095732;28;20083;-73
2022/08/13 07:24:09;;;;;;;8.73;6.28;;;;;;;22.77;91.88;92896.25;5091634;28;20093;-73
2022/08/13 07:26:36;;;;;;;8.52;6.25;;;;;;;22.82;91.33;92906.63;5091364;28;20177;-73
2022/08/13 07:29:05;;;;;;;9.85;5.97;;;;;;;22.73;91.14;92903.91;5091133;28;20044;-73
2022/08/13 07:31:33;;;;;;;9.68;6.30;;;;;;;22.66;90.77;92898.28;5091605;28;20056;-73
2022/08/13 07:34:05;;;;;;;8.15;5.80;;;;;;;22.64;91.14;92905.66;5090958;28;20088;-72
2022/08/13 07:36:37;;;;;;;11.23;6.50;;;;;;;22.86;92.77;92901.56;5091633;28;20052;-72
2022/08/13 07:39:09;;;;;;;8.82;6.35;;;;;;;22.83;91.61;92901.06;5091241;28;20040;-73
2022/08/13 07:41:41;;;;;;;12.15;6.25;;;;;;;22.94;91.54;92904.25;5091137;28;20044;-73
2022/08/13 07:44:12;;;;;;;7.55;6.13;;;;;;;22.98;89.07;92899.22;5101047;28;20055;-73
2022/08/13 07:46:42;;;;;;;8.02;5.63;;;;;;;23.08;90.71;92899.00;5094832;28;20428;-73
2022/08/13 07:49:11;;;;;;;13.90;7.18;;;;;;;23.23;90.26;92897.88;5091128;28;20044;-73
2022/08/13 07:51:40;;;;;;;10.98;5.80;;;;;;;23.36;90.23;92898.13;5091195;28;20044;-73
2022/08/13 07:54:10;;;;;;;10.15;6.25;;;;;;;23.46;89.50;92890.03;5090936;28;20044;-73
2022/08/13 07:56:37;;;;;;;8.23;5.93;;;;;;;23.29;86.41;92877.56;5091060;28;20052;-72
2022/08/13 07:59:07;;;;;;;11.00;6.10;;;;;;;23.07;88.57;92902.69;5090873;28;20040;-72
2022/08/13 08:01:44;;;;;;;10.93;6.00;;;;;;;23.09;89.12;92897.91;5090818;28;20163;-72
2022/08/13 08:04:14;;;;;;;12.23;5.82;;;;;;;22.99;88.76;92900.00;5090881;28;20104;-72
2022/08/13 08:06:41;;;;;;;10.32;5.38;;;;;;;22.33;90.83;92893.94;5090486;28;20098;-73
2022/08/13 08:09:10;;;;;;;10.30;5.95;;;;;;;22.11;94.24;92892.75;5090203;28;20131;-74
2022/08/13 08:14:25;;;;;;;10.73;6.63;;;;;;;22.35;94.85;92891.03;5090359;28;20055;-74
2022/08/13 08:16:52;;;;;;;8.00;5.75;;;;;;;22.59;92.47;92897.91;5090659;28;20407;-73
2022/08/13 08:19:19;;;;;;;12.15;5.85;;;;;;;22.62;90.12;92897.31;5106511;28;20490;-73
2022/08/13 08:21:48;;;;;;;11.65;6.03;;;;;;;22.42;90.15;92886.97;5099280;28;20043;-73
2022/08/13 08:24:18;;;;;;;10.63;5.97;;;;;;;22.50;91.44;92890.72;5090353;28;20056;-75
2022/08/13 08:26:47;;;;;;;10.65;5.65;;;;;;;22.85;91.39;92897.41;5090586;28;20094;-76
2022/08/13 08:29:16;;;;;;;8.35;5.82;;;;;;;23.12;90.84;92896.56;5090397;28;20076;-76
2022/08/13 08:31:44;;;;;;;9.50;5.45;;;;;;;23.18;84.90;92897.97;5089996;28;20127;-76
2022/08/13 08:34:12;;;;;;;8.10;5.75;;;;;;;23.46;87.64;92895.28;5090087;28;20513;-75
2022/08/13 08:36:40;;;;;;;9.35;5.38;;;;;;;23.66;84.11;92905.59;5089955;28;20098;-75
2022/08/13 08:44:40;;;;;;;14.90;6.15;;;;;;;24.24;82.54;92901.28;5103993;28;20129;-74
2022/08/13 08:47:08;;;;;;;7.22;5.15;;;;;;;24.40;80.88;92901.63;5089978;28;20564;-74
2022/08/13 08:49:36;;;;;;;8.52;5.90;;;;;;;24.55;80.98;92900.47;5102602;28;20491;-74
2022/08/13 08:52:04;;;;;;;7.13;5.05;;;;;;;24.70;79.12;92906.34;5091080;28;20097;-74
2022/08/13 08:54:31;;;;;;;6.57;4.50;;;;;;;24.68;76.15;92908.53;5089839;28;20496;-74
2022/08/13 08:57:00;;;;;;;6.55;4.60;;;;;;;24.73;77.84;92903.13;5096216;28;20144;-74
2022/08/13 08:59:28;;;;;;;5.95;5.03;;;;;;;24.79;76.88;92906.38;5092719;28;20074;-74
2022/08/13 09:01:56;;;;;;;6.65;5.13;;;;;;;24.92;77.75;92907.34;5089316;28;20093;-75
2022/08/13 09:04:28;;;;;;;7.35;5.20;;;;;;;24.96;77.79;92905.66;5089664;28;20052;-75
2022/08/13 09:06:57;;;;;;;6.75;4.72;;;;;;;25.02;78.92;92891.28;5095617;28;20052;-74
2022/08/13 09:09:25;;;;;;;7.18;4.68;;;;;;;25.06;77.60;92892.22;5089309;28;20480;-74
2022/08/13 09:11:55;;;;;;;7.13;4.80;;;;;;;24.95;76.60;92898.88;5089249;28;20044;-74
2022/08/13 09:14:26;;;;;;;6.35;5.32;;;;;;;24.95;76.35;92898.88;5088615;28;20059;-74
2022/08/13 09:16:55;;;;;;;7.22;5.63;;;;;;;24.96;77.22;92900.41;5089611;28;20134;-74
2022/08/13 09:19:23;;;;;;;8.93;5.63;;;;;;;25.00;78.04;92890.03;5100996;28;20048;-75
2022/08/13 09:21:51;;;;;;;7.28;5.35;;;;;;;24.78;75.33;92871.47;5101743;28;20096;-74
2022/08/13 09:24:24;;;;;;;5.65;4.90;;;;;;;24.85;76.05;92896.53;5094944;28;20631;-74
2022/08/13 09:26:52;;;;;;;6.38;5.32;;;;;;;24.79;77.43;92896.66;5090283;28;20491;-73
2022/08/13 09:29:20;;;;;;;5.95;4.97;;;;;;;24.65;77.21;92896.00;5100469;28;20054;-76
2022/08/13 09:31:55;;;;;;;7.07;5.53;;;;;;;24.29;78.27;92890.66;5097787;28;20326;-75
2022/08/13 09:34:22;;;;;;;6.20;4.90;;;;;;;23.93;79.19;92891.53;5091830;28;20052;-75
2022/08/13 09:36:56;;;;;;;6.40;5.63;;;;;;;24.22;80.06;92890.31;5089621;28;20056;-75
2022/08/13 09:39:30;;;;;;;6.32;5.45;;;;;;;24.48;81.35;92879.13;5102738;28;20139;-74
2022/08/13 09:42:00;;;;;;;9.20;5.80;;;;;;;24.25;78.56;92884.44;5104183;28;20039;-75
2022/08/13 09:44:28;;;;;;;6.50;5.07;;;;;;;24.53;77.32;92881.59;5108851;28;20090;-75
2022/08/13 09:46:57;;;;;;;6.28;5.15;;;;;;;24.48;77.92;92873.88;5091863;28;20415;-75
2022/08/13 09:49:25;;;;;;;5.88;5.18;;;;;;;24.00;80.37;92857.00;5089441;28;20056;-75
2022/08/13 09:51:52;;;;;;;8.45;5.30;;;;;;;24.68;80.39;92872.50;5089437;28;20070;-74
2022/08/13 09:54:22;;;;;;;7.63;4.78;;;;;;;24.68;78.02;92838.38;5089229;28;20538;-75
2022/08/13 09:56:49;;;;;;;8.02;5.50;;;;;;;24.48;77.59;92867.84;5089269;28;20064;-75
2022/08/13 09:59:15;;;;;;;6.72;4.57;;;;;;;24.57;75.43;92865.25;5089350;28;20069;-75
2022/08/13 10:01:42;;;;;;;6.25;5.22;;;;;;;24.63;76.83;92867.41;5088914;28;20043;-75
2022/08/13 10:04:17;;;;;;;8.15;4.53;;;;;;;24.46;77.95;92868.16;5089009;28;20056;-75
2022/08/13 10:06:45;;;;;;;6.43;5.43;;;;;;;24.00;75.94;92867.50;5088622;28;20048;-75
2022/08/13 10:09:12;;;;;;;8.68;5.68;;;;;;;24.42;79.33;92859.34;5098011;28;20286;-75
2022/08/13 10:11:41;;;;;;;6.70;5.38;;;;;;;24.25;73.36;92863.47;5092651;28;20101;-75
2022/08/13 10:14:08;;;;;;;6.75;5.72;;;;;;;24.49;78.66;92861.53;5091785;28;20275;-75
2022/08/13 10:16:50;;;;;;;7.63;6.20;;;;;;;24.61;77.50;92858.28;5093921;28;20055;-76
2022/08/13 10:19:21;;;;;;;7.90;5.43;;;;;;;24.70;76.40;92856.44;5098007;28;20086;-75
2022/08/13 10:21:48;;;;;;;7.72;5.10;;;;;;;24.72;76.12;92861.41;5092608;28;20058;-75
2022/08/13 10:24:20;;;;;;;8.60;5.72;;;;;;;24.79;77.31;92861.72;5093186;28;20137;-75
2022/08/13 10:26:49;;;;;;;10.38;6.13;;;;;;;24.79;77.49;92859.88;5091950;28;20051;-75
2022/08/13 10:29:15;;;;;;;10.13;5.82;;;;;;;24.82;77.67;92856.66;5095274;28;20503;-74
2022/08/13 10:31:43;;;;;;;7.90;5.75;;;;;;;24.88;78.94;92856.50;5094952;28;20040;-74
2022/08/13 10:34:10;;;;;;;7.13;6.03;;;;;;;24.88;78.03;92867.00;5107265;28;20130;-75
2022/08/13 10:36:43;;;;;;;8.27;5.07;;;;;;;24.87;78.51;92865.47;5100049;28;20485;-76
2022/08/13 10:39:10;;;;;;;6.80;5.80;;;;;;;24.72;82.05;92869.28;5102768;28;20412;-76
2022/08/13 10:41:36;;;;;;;6.75;5.18;;;;;;;24.33;88.01;92853.28;5093411;28;20108;-76
2022/08/13 10:44:04;;;;;;;8.20;6.35;;;;;;;24.25;88.43;92847.72;5101387;28;20093;-77
2022/08/13 10:46:31;;;;;;;7.57;6.05;;;;;;;24.14;91.27;92855.09;5097080;28;20101;-76
2022/08/13 10:48:59;;;;;;;9.65;7.00;;;;;;;24.02;92.49;92855.63;5092230;28;20140;-76
2022/08/13 10:51:27;;;;;;;9.10;6.35;;;;;;;23.94;93.17;92852.97;5092055;28;20040;-77
2022/08/13 10:54:01;;;;;;;8.15;6.25;;;;;;;23.83;95.65;92848.00;5092173;28;20415;-77
2022/08/13 10:56:30;;;;;;;8.63;6.15;;;;;;;23.75;95.56;92851.34;5092336;28;20044;-77
2022/08/13 10:58:59;;;;;;;8.80;6.13;;;;;;;23.72;98.38;92851.94;5092348;28;20044;-77
2022/08/13 11:01:27;;;;;;;8.07;6.45;;;;;;;23.61;98.57;92846.19;5092160;28;20090;-77
2022/08/13 11:03:56;;;;;;;9.30;6.18;;;;;;;23.53;100.00;92849.53;5091889;28;20044;-77
2022/08/13 11:06:24;;;;;;;6.60;5.78;;;;;;;23.55;100.00;92850.03;5092225;28;20047;-77
2022/08/13 11:08:54;;;;;;;8.52;6.35;;;;;;;23.53;98.63;92852.16;5091790;28;20100;-77
2022/08/13 11:11:22;;;;;;;8.10;6.55;;;;;;;23.51;100.00;92844.56;5104510;28;20052;-77
2022/08/13 11:13:49;;;;;;;7.20;6.07;;;;;;;23.51;99.51;92836.72;5094114;28;20048;-77
2022/08/13 11:19:10;;;;;;;9.57;5.68;;;;;;;23.67;96.19;92825.84;5103615;28;20412;-77
2022/08/13 11:21:37;;;;;;;7.30;6.20;;;;;;;24.02;96.18;92845.13;5099690;28;20131;-78
2022/08/13 11:24:04;;;;;;;7.65;6.82;;;;;;;24.11;92.81;92831.31;5091685;28;20044;-77
2022/08/13 11:26:32;;;;;;;7.93;6.90;;;;;;;24.42;92.59;92830.47;5091637;28;20515;-78
2022/08/13 11:28:59;;;;;;;9.55;7.18;;;;;;;24.57;88.35;92839.00;5091666;28;20048;-77
2022/08/13 11:31:26;;;;;;;8.45;6.25;;;;;;;24.78;91.10;92833.91;5091453;28;20047;-77
2022/08/13 11:33:52;;;;;;;9.15;6.72;;;;;;;25.11;85.86;92835.31;5091203;28;20052;-76
2022/08/13 11:36:19;;;;;;;7.55;5.90;;;;;;;25.21;80.63;92832.38;5090837;28;20066;-77
2022/08/13 11:38:46;;;;;;;8.82;7.30;;;;;;;25.02;84.27;92838.75;5091619;28;20048;-76
2022/08/13 11:41:13;;;;;;;12.27;8.50;;;;;;;24.71;84.18;92826.47;5097473;28;20385;-76
2022/08/13 11:43:41;;;;;;;8.77;6.88;;;;;;;24.34;88.19;92825.97;5096844;28;20427;-77
2022/08/13 11:46:08;;;;;;;13.50;9.80;;;;;;;24.36;85.58;92824.59;5099470;28;20056;-77
2022/08/13 11:48:35;;;;;;;8.55;7.10;;;;;;;24.18;89.10;92823.78;5091051;28;20541;-77
2022/08/13 11:51:02;;;;;;;7.22;6.38;;;;;;;24.06;87.55;92807.81;5091051;28;20138;-77
2022/08/13 11:53:29;;;;;;;10.05;7.15;;;;;;;24.33;86.62;92821.78;5091045;28;20052;-77
2022/08/13 11:55:55;;;;;;;10.20;7.93;;;;;;;24.24;88.61;92819.13;5091443;28;20115;-77
2022/08/13 11:58:22;;;;;;;9.30;7.45;;;;;;;24.15;90.60;92814.66;5090918;28;20074;-77